createdAt,value
2024-01-24T00:01:22.929Z,4.94
2024-01-24T00:03:51.112Z,4.97
2024-01-24T00:06:20.511Z,5.02
2024-01-24T00:08:49.525Z,5.03
2024-01-24T00:11:17.565Z,5.09
2024-01-24T00:13:45.642Z,5.11
2024-01-24T00:16:13.645Z,5.13
2024-01-24T00:18:41.680Z,5.21
2024-01-24T00:21:09.756Z,5.26
2024-01-24T00:23:39.062Z,5.26
2024-01-24T00:26:07.007Z,5.29
2024-01-24T00:28:34.943Z,5.32
2024-01-24T00:31:03.267Z,5.35
2024-01-24T00:33:31.549Z,5.37
2024-01-24T00:35:59.588Z,5.36
2024-01-24T00:38:27.806Z,5.46
2024-01-24T00:40:57.441Z,5.41
2024-01-24T00:43:27.032Z,5.45
2024-01-24T00:45:55.063Z,5.58
2024-01-24T00:48:23.338Z,5.52
2024-01-24T00:50:51.355Z,5.60
2024-01-24T00:53:22.808Z,5.62
2024-01-24T00:55:51.043Z,5.68
2024-01-24T00:58:21.050Z,5.75
2024-01-24T01:00:49.235Z,5.74
2024-01-24T01:03:17.411Z,5.76
2024-01-24T01:05:45.548Z,5.86
2024-01-24T01:08:13.563Z,5.82
2024-01-24T01:10:41.510Z,5.86
2024-01-24T01:13:09.692Z,5.92
2024-01-24T01:15:39.071Z,6.01
2024-01-24T01:18:07.203Z,6.12
2024-01-24T01:20:35.169Z,6.10
2024-01-24T01:23:04.938Z,6.05
2024-01-24T01:25:32.890Z,6.07
2024-01-24T01:28:00.857Z,6.09
2024-01-24T01:30:28.816Z,6.09
2024-01-24T01:32:58.314Z,6.16
2024-01-24T01:35:26.412Z,6.22
2024-01-24T01:37:54.436Z,6.26
2024-01-24T01:40:22.671Z,6.26
2024-01-24T01:42:50.887Z,6.26
2024-01-24T01:45:18.973Z,6.27
2024-01-24T01:47:50.190Z,6.15
2024-01-24T01:50:21.121Z,6.28
2024-01-24T01:52:49.223Z,6.31
2024-01-24T01:55:18.454Z,6.28
2024-01-24T01:57:46.655Z,6.29
2024-01-24T02:00:21.772Z,6.35
2024-01-24T02:02:50.146Z,6.28
2024-01-24T02:05:20.223Z,6.27
2024-01-24T02:07:48.734Z,6.39
2024-01-24T02:10:17.307Z,6.38
2024-01-24T02:12:45.376Z,6.36
2024-01-24T02:15:13.418Z,6.39
2024-01-24T02:17:41.460Z,6.37
2024-01-24T02:20:11.298Z,6.32
2024-01-24T02:22:40.832Z,6.41
2024-01-24T02:25:10.728Z,6.33
2024-01-24T02:27:38.877Z,6.26
2024-01-24T02:30:07.802Z,6.33
2024-01-24T02:32:35.887Z,6.31
2024-01-24T02:35:05.337Z,6.35
2024-01-24T02:37:33.348Z,6.29
2024-01-24T02:40:01.443Z,6.31
2024-01-24T02:42:30.872Z,6.28
2024-01-24T02:44:58.810Z,6.37
2024-01-24T02:47:26.837Z,6.42
2024-01-24T02:49:54.842Z,6.40
2024-01-24T02:52:22.953Z,6.42
2024-01-24T02:54:50.956Z,6.42
2024-01-24T02:57:19.058Z,6.44
2024-01-24T02:59:48.452Z,6.44
2024-01-24T03:02:16.423Z,6.45
2024-01-24T03:04:43.823Z,6.39
2024-01-24T03:07:12.267Z,6.41
2024-01-24T03:09:40.341Z,6.41
2024-01-24T03:12:11.774Z,6.34
2024-01-24T03:14:39.740Z,6.39
2024-01-24T03:17:09.243Z,6.37
2024-01-24T03:19:37.348Z,6.36
2024-01-24T03:22:05.908Z,6.42
2024-01-24T03:24:33.966Z,6.47
2024-01-24T03:27:01.996Z,6.45
2024-01-24T03:29:29.974Z,6.56
2024-01-24T03:31:57.925Z,6.67
2024-01-24T03:34:31.626Z,6.62
2024-01-24T03:36:59.793Z,6.58
2024-01-24T03:39:27.899Z,6.59
2024-01-24T03:41:55.895Z,6.66
2024-01-24T03:44:23.835Z,6.66
2024-01-24T03:46:51.819Z,6.72
2024-01-24T03:49:21.893Z,6.74
2024-01-24T03:51:51.659Z,6.74
2024-01-24T03:54:20.801Z,6.76
2024-01-24T03:56:48.886Z,6.76
2024-01-24T03:59:16.934Z,6.72
2024-01-24T04:01:44.883Z,6.76
2024-01-24T04:04:12.986Z,6.71
2024-01-24T04:06:41.094Z,6.72
2024-01-24T04:09:10.514Z,6.77
2024-01-24T04:11:40.530Z,6.71
2024-01-24T04:14:10.023Z,6.68
2024-01-24T04:16:40.586Z,6.72
2024-01-24T04:19:08.995Z,6.67
2024-01-24T04:21:42.714Z,6.71
2024-01-24T04:24:12.209Z,6.68
2024-01-24T04:26:41.546Z,6.75
2024-01-24T04:29:12.832Z,6.76
2024-01-24T04:31:42.838Z,6.80
2024-01-24T04:34:11.112Z,6.84
2024-01-24T04:36:39.169Z,6.87
2024-01-24T04:39:07.224Z,6.88
2024-01-24T04:41:40.152Z,6.97
2024-01-24T04:44:09.223Z,6.97
2024-01-24T04:46:37.355Z,6.99
2024-01-24T04:49:05.486Z,7.05
2024-01-24T04:51:33.818Z,7.10
2024-01-24T04:54:02.180Z,7.12
2024-01-24T04:56:30.465Z,7.23
2024-01-24T04:58:59.923Z,7.14
2024-01-24T05:01:28.130Z,7.19
2024-01-24T05:03:56.437Z,7.22
2024-01-24T05:06:24.514Z,7.29
2024-01-24T05:08:58.850Z,7.33
2024-01-24T05:11:26.843Z,7.34
2024-01-24T05:13:56.179Z,7.38
2024-01-24T05:16:25.511Z,7.46
2024-01-24T05:18:53.656Z,7.47
2024-01-24T05:21:21.715Z,7.49
2024-01-24T05:23:50.099Z,7.54
2024-01-24T05:26:18.555Z,7.64
2024-01-24T05:28:46.567Z,7.66
2024-01-24T05:31:14.620Z,7.61
2024-01-24T05:33:44.137Z,7.61
2024-01-24T05:36:12.155Z,7.67
2024-01-24T05:38:40.184Z,7.75
2024-01-24T05:41:08.148Z,7.73
2024-01-24T05:43:36.136Z,7.80
2024-01-24T05:46:04.248Z,7.80
2024-01-24T05:48:32.474Z,7.83
2024-01-24T05:51:01.875Z,7.88
2024-01-24T05:53:29.939Z,7.91
2024-01-24T05:55:57.881Z,7.93
2024-01-24T05:58:25.902Z,7.93
2024-01-24T06:00:55.111Z,8.02
2024-01-24T06:03:23.177Z,8.08
2024-01-24T06:05:52.295Z,8.08
2024-01-24T06:08:22.289Z,8.20
2024-01-24T06:10:50.394Z,8.22
2024-01-24T06:13:18.361Z,8.28
2024-01-24T06:15:46.425Z,8.36
2024-01-24T06:18:14.545Z,8.35
2024-01-24T06:20:42.592Z,8.42
2024-01-24T06:23:10.626Z,8.48
2024-01-24T06:25:40.080Z,8.51
2024-01-24T06:28:10.729Z,8.57
2024-01-24T06:30:38.717Z,8.61
2024-01-24T06:33:06.911Z,8.63
2024-01-24T06:35:34.881Z,8.70
2024-01-24T06:38:03.590Z,8.69
2024-01-24T06:40:31.545Z,8.80
2024-01-24T06:43:00.952Z,8.82
2024-01-24T06:45:28.980Z,8.82
2024-01-24T06:47:56.990Z,8.86
2024-01-24T06:50:25.374Z,8.95
2024-01-24T06:52:53.530Z,8.97
2024-01-24T06:55:22.995Z,8.98
2024-01-24T06:57:51.037Z,8.99
2024-01-24T07:00:22.414Z,9.04
2024-01-24T07:02:51.405Z,9.02
2024-01-24T07:05:19.436Z,8.96
2024-01-24T07:07:47.426Z,9.02
2024-01-24T07:10:15.385Z,9.00
2024-01-24T07:12:47.775Z,8.98
2024-01-24T07:15:17.532Z,8.98
2024-01-24T07:17:48.012Z,8.89
2024-01-24T07:20:19.456Z,8.85
2024-01-24T07:22:47.638Z,8.85
2024-01-24T07:25:15.781Z,8.85
2024-01-24T07:27:45.981Z,8.86
2024-01-24T07:30:15.183Z,8.79
2024-01-24T07:32:43.726Z,8.79
2024-01-24T07:35:13.324Z,8.79
2024-01-24T07:37:41.315Z,8.73
2024-01-24T07:40:11.915Z,9.17
2024-01-24T07:42:40.023Z,8.90
2024-01-24T07:45:10.174Z,8.82
2024-01-24T07:47:39.229Z,8.91
2024-01-24T07:50:09.209Z,8.90
2024-01-24T07:52:43.225Z,8.91
2024-01-24T07:55:13.538Z,8.96
2024-01-24T07:57:42.688Z,8.94
2024-01-24T08:00:17.517Z,9.02
2024-01-24T08:02:46.658Z,9.17
2024-01-24T08:05:15.994Z,9.32
2024-01-24T08:07:45.624Z,9.37
2024-01-24T08:10:13.631Z,9.47
2024-01-24T08:12:42.183Z,9.61
2024-01-24T08:15:11.136Z,9.67
2024-01-24T08:17:39.460Z,9.74
2024-01-24T08:20:10.150Z,9.85
2024-01-24T08:22:38.557Z,9.82
2024-01-24T08:25:09.643Z,9.87
2024-01-24T08:27:37.953Z,9.83
2024-01-24T08:30:07.925Z,9.86
2024-01-24T08:32:41.416Z,9.88
2024-01-24T08:35:10.497Z,9.95
2024-01-24T08:37:38.634Z,9.95
2024-01-24T08:40:10.148Z,9.95
2024-01-24T08:42:38.440Z,9.95
2024-01-24T08:45:07.201Z,10.00
2024-01-24T08:47:35.186Z,10.05
2024-01-24T08:50:05.326Z,10.11
2024-01-24T08:52:33.792Z,10.08
2024-01-24T08:55:02.068Z,10.11
2024-01-24T08:57:31.676Z,10.05
2024-01-24T08:59:59.685Z,10.13
2024-01-24T09:02:27.780Z,10.03
2024-01-24T09:04:56.441Z,10.04
2024-01-24T09:07:24.566Z,10.06
2024-01-24T09:09:52.843Z,9.99
2024-01-24T09:12:21.098Z,9.99
2024-01-24T09:14:50.557Z,9.93
2024-01-24T09:17:20.293Z,9.94
2024-01-24T09:19:49.800Z,9.87
2024-01-24T09:22:18.082Z,9.89
2024-01-24T09:24:50.123Z,9.91
2024-01-24T09:27:19.406Z,9.96
2024-01-24T09:29:47.396Z,9.93
2024-01-24T09:32:16.779Z,9.94
2024-01-24T09:34:45.016Z,10.00
2024-01-24T09:37:16.062Z,9.96
2024-01-24T09:39:44.416Z,9.97
2024-01-24T09:42:21.805Z,10.05
2024-01-24T09:44:51.484Z,10.01
2024-01-24T09:47:23.559Z,10.06
2024-01-24T09:49:53.313Z,10.05
2024-01-24T09:52:25.182Z,10.15
2024-01-24T09:54:58.399Z,10.21
2024-01-24T09:57:28.559Z,10.27
2024-01-24T09:59:56.929Z,10.39
2024-01-24T10:02:28.444Z,10.39
2024-01-24T10:04:57.109Z,10.43
2024-01-24T10:07:25.275Z,10.45
2024-01-24T10:10:09.079Z,10.47
2024-01-24T10:12:38.076Z,10.37
2024-01-24T10:15:07.162Z,10.38
2024-01-24T10:17:36.693Z,10.30
2024-01-24T10:20:07.750Z,10.29
2024-01-24T10:22:35.954Z,10.18
2024-01-24T10:25:04.391Z,10.13
2024-01-24T10:27:35.817Z,10.07
2024-01-24T10:30:04.632Z,10.04
2024-01-24T10:32:33.957Z,10.01
2024-01-24T10:35:05.981Z,10.06
2024-01-24T10:37:36.591Z,10.08
2024-01-24T10:40:12.785Z,10.18
2024-01-24T10:42:44.478Z,10.14
2024-01-24T10:45:13.102Z,10.11
2024-01-24T10:47:42.666Z,10.14
2024-01-24T10:50:15.539Z,10.13
2024-01-24T10:52:44.783Z,10.09
2024-01-24T10:55:16.081Z,10.14
2024-01-24T10:57:50.237Z,10.30
2024-01-24T11:00:20.520Z,10.27
2024-01-24T11:02:48.796Z,10.24
2024-01-24T11:05:26.078Z,10.48
2024-01-24T11:08:01.621Z,10.52
2024-01-24T11:10:35.463Z,10.44
2024-01-24T11:13:05.157Z,10.37
2024-01-24T11:15:33.307Z,10.38
2024-01-24T11:18:20.118Z,10.37
2024-01-24T11:20:52.913Z,10.41
2024-01-24T11:23:39.998Z,10.37
2024-01-24T11:26:08.061Z,10.55
2024-01-24T11:28:37.877Z,10.49
2024-01-24T11:31:08.303Z,10.43
2024-01-24T11:33:36.849Z,10.41
2024-01-24T11:36:14.989Z,10.56
2024-01-24T11:38:43.324Z,11.43
2024-01-24T11:41:24.638Z,11.62
2024-01-24T11:43:52.743Z,11.72
2024-01-24T11:46:22.700Z,11.83
2024-01-24T11:48:50.888Z,11.85
2024-01-24T11:51:21.642Z,12.16
2024-01-24T11:53:49.948Z,12.10
2024-01-24T11:56:19.177Z,12.08
2024-01-24T11:58:46.180Z,12.09
2024-01-24T12:01:14.695Z,12.13
2024-01-24T12:03:49.379Z,12.14
2024-01-24T12:06:20.517Z,12.11
2024-01-24T12:08:50.539Z,11.97
2024-01-24T12:11:20.204Z,11.86
2024-01-24T12:13:48.948Z,11.79
2024-01-24T12:16:17.219Z,11.74
2024-01-24T12:18:45.586Z,11.69
2024-01-24T12:21:13.947Z,11.68
2024-01-24T12:23:44.264Z,11.60
2024-01-24T12:26:12.494Z,11.59
2024-01-24T12:28:40.745Z,11.54
2024-01-24T12:31:08.808Z,11.45
2024-01-24T12:33:37.788Z,11.43
2024-01-24T12:36:07.592Z,11.47
2024-01-24T12:38:37.907Z,11.52
2024-01-24T12:41:07.576Z,11.46
2024-01-24T12:43:37.459Z,11.40
2024-01-24T12:46:10.539Z,11.48
2024-01-24T12:48:39.584Z,11.37
2024-01-24T12:51:08.881Z,11.24
2024-01-24T12:53:37.159Z,11.18
2024-01-24T12:56:07.559Z,11.21
2024-01-24T12:58:35.867Z,11.17
2024-01-24T13:01:04.650Z,11.19
2024-01-24T13:03:33.515Z,11.22
2024-01-24T13:06:01.724Z,11.35
2024-01-24T13:08:29.993Z,11.30
2024-01-24T13:10:58.108Z,11.34
2024-01-24T13:13:27.548Z,11.39
2024-01-24T13:15:58.339Z,11.35
2024-01-24T13:18:26.595Z,11.32
2024-01-24T13:20:54.853Z,11.33
2024-01-24T13:23:23.071Z,11.39
2024-01-24T13:25:51.232Z,11.37
2024-01-24T13:28:19.702Z,11.36
2024-01-24T13:30:53.250Z,11.46
2024-01-24T13:33:21.524Z,11.52
2024-01-24T13:35:49.783Z,11.60
2024-01-24T13:38:17.941Z,11.58
2024-01-24T13:40:46.468Z,11.54
2024-01-24T13:43:14.623Z,11.46
2024-01-24T13:45:43.630Z,11.48
2024-01-24T13:48:15.786Z,11.48
2024-01-24T13:50:43.811Z,11.44
2024-01-24T13:53:12.393Z,11.42
2024-01-24T13:55:41.120Z,11.39
2024-01-24T13:58:09.464Z,11.40
2024-01-24T14:00:37.970Z,11.33
2024-01-24T14:03:07.360Z,11.29
2024-01-24T14:05:40.629Z,11.21
2024-01-24T14:08:09.135Z,11.21
2024-01-24T14:10:37.140Z,11.26
2024-01-24T14:13:05.687Z,11.26
2024-01-24T14:15:36.406Z,11.16
2024-01-24T14:18:06.212Z,11.14
2024-01-24T14:20:35.317Z,11.18
2024-01-24T14:23:05.184Z,11.19
2024-01-24T14:25:33.165Z,11.15
2024-01-24T14:28:01.207Z,11.25
2024-01-24T14:30:31.269Z,11.15
2024-01-24T14:32:59.670Z,11.14
2024-01-24T14:35:29.051Z,11.17
2024-01-24T14:37:57.419Z,11.31
2024-01-24T14:40:27.041Z,11.39
2024-01-24T14:42:55.118Z,11.33
2024-01-24T14:45:23.134Z,11.28
2024-01-24T14:47:51.114Z,11.15
2024-01-24T14:50:19.363Z,11.12
2024-01-24T14:52:47.306Z,11.04
2024-01-24T14:55:15.332Z,11.06
2024-01-24T14:57:44.718Z,11.00
2024-01-24T15:00:14.136Z,10.95
2024-01-24T15:02:42.226Z,10.80
2024-01-24T15:05:10.713Z,10.69
2024-01-24T15:07:39.606Z,10.64
2024-01-24T15:10:09.881Z,10.55
2024-01-24T15:12:38.633Z,10.46
2024-01-24T15:15:09.478Z,10.36
2024-01-24T15:17:37.833Z,10.34
2024-01-24T15:20:10.523Z,10.21
2024-01-24T15:22:41.773Z,10.11
2024-01-24T15:25:11.096Z,10.07
2024-01-24T15:27:40.371Z,10.10
2024-01-24T15:30:11.413Z,9.99
2024-01-24T15:32:39.574Z,9.95
2024-01-24T15:35:08.247Z,9.87
2024-01-24T15:37:36.749Z,9.81
2024-01-24T15:40:08.671Z,9.67
2024-01-24T15:42:43.045Z,9.68
2024-01-24T15:45:14.332Z,9.60
2024-01-24T15:47:42.852Z,9.54
2024-01-24T15:50:12.834Z,9.42
2024-01-24T15:52:40.882Z,9.39
2024-01-24T15:55:09.753Z,9.48
2024-01-24T15:57:37.880Z,9.40
2024-01-24T16:00:10.968Z,9.40
2024-01-24T16:02:42.462Z,9.32
2024-01-24T16:05:24.291Z,9.24
2024-01-24T16:07:53.299Z,9.11
2024-01-24T16:10:21.431Z,9.14
2024-01-24T16:12:55.022Z,9.23
2024-01-24T16:15:23.227Z,9.20
2024-01-24T16:17:52.711Z,9.08
2024-01-24T16:20:20.739Z,9.04
2024-01-24T16:22:55.012Z,8.99
2024-01-24T16:25:24.820Z,9.00
2024-01-24T16:27:52.908Z,8.84
2024-01-24T16:30:22.144Z,8.87
2024-01-24T16:32:52.817Z,8.91
2024-01-24T16:35:23.519Z,8.76
2024-01-24T16:37:51.688Z,8.69
2024-01-24T16:40:19.840Z,8.69
2024-01-24T16:42:48.091Z,8.60
2024-01-24T16:45:16.284Z,8.62
2024-01-24T16:47:46.332Z,8.56
2024-01-24T16:50:14.762Z,8.56
2024-01-24T16:52:44.194Z,8.58
2024-01-24T16:55:12.587Z,8.50
2024-01-24T16:57:40.670Z,8.50
2024-01-24T17:00:10.270Z,8.44
2024-01-24T17:02:43.326Z,8.47
2024-01-24T17:05:18.060Z,8.39
2024-01-24T17:07:47.558Z,8.22
2024-01-24T17:10:16.936Z,8.32
2024-01-24T17:12:45.427Z,8.38
2024-01-24T17:15:14.907Z,8.36
2024-01-24T17:17:44.349Z,8.32
2024-01-24T17:20:12.592Z,8.37
2024-01-24T17:22:40.698Z,8.27
2024-01-24T17:25:11.641Z,8.21
2024-01-24T17:27:40.237Z,8.31
2024-01-24T17:30:11.443Z,8.28
2024-01-24T17:32:40.114Z,8.27
2024-01-24T17:35:08.714Z,8.26
2024-01-24T17:37:36.821Z,8.24
2024-01-24T17:40:05.743Z,8.30
2024-01-24T17:42:35.338Z,8.30
2024-01-24T17:45:03.549Z,8.32
2024-01-24T17:47:34.104Z,8.38
2024-01-24T17:50:03.286Z,8.39
2024-01-24T17:52:31.427Z,8.29
2024-01-24T17:55:01.373Z,8.31
2024-01-24T17:57:29.917Z,8.31
2024-01-24T18:00:02.132Z,8.29
2024-01-24T18:02:30.295Z,8.29
2024-01-24T18:04:58.652Z,8.25
2024-01-24T18:07:26.819Z,8.15
2024-01-24T18:09:56.624Z,8.18
2024-01-24T18:12:24.863Z,8.16
2024-01-24T18:14:54.435Z,8.01
2024-01-24T18:17:23.829Z,8.15
2024-01-24T18:19:52.110Z,8.16
2024-01-24T18:22:20.161Z,8.05
2024-01-24T18:24:48.768Z,8.07
2024-01-24T18:27:16.804Z,8.04
2024-01-24T18:29:45.795Z,8.03
2024-01-24T18:32:14.646Z,8.09
2024-01-24T18:34:44.445Z,8.10
2024-01-24T18:37:12.740Z,8.21
2024-01-24T18:39:40.858Z,8.12
2024-01-24T18:42:09.681Z,8.16
2024-01-24T18:44:38.361Z,8.13
2024-01-24T18:47:07.967Z,8.08
2024-01-24T18:49:36.229Z,8.10
2024-01-24T18:52:06.212Z,8.15
2024-01-24T18:54:34.531Z,8.19
2024-01-24T18:57:02.917Z,8.12
2024-01-24T18:59:30.964Z,8.10
2024-01-24T19:01:59.557Z,8.02
2024-01-24T19:04:28.342Z,8.01
2024-01-24T19:06:57.454Z,8.05
2024-01-24T19:09:27.324Z,8.12
2024-01-24T19:11:57.520Z,8.13
2024-01-24T19:14:25.736Z,8.15
2024-01-24T19:16:53.957Z,8.13
2024-01-24T19:19:24.593Z,8.06
2024-01-24T19:21:53.856Z,7.99
2024-01-24T19:24:21.902Z,8.11
2024-01-24T19:26:51.322Z,8.08
2024-01-24T19:29:19.598Z,8.03
2024-01-24T19:31:47.643Z,7.91
2024-01-24T19:34:15.726Z,8.05
2024-01-24T19:36:43.820Z,7.93
2024-01-24T19:39:11.929Z,7.97
2024-01-24T19:41:39.901Z,8.00
2024-01-24T19:44:09.329Z,7.98
2024-01-24T19:46:37.295Z,7.89
2024-01-24T19:49:05.559Z,8.06
2024-01-24T19:51:33.597Z,8.07
2024-01-24T19:54:02.177Z,8.16
2024-01-24T19:56:30.136Z,8.08
2024-01-24T19:59:00.320Z,7.98
2024-01-24T20:01:30.254Z,7.96
2024-01-24T20:03:58.357Z,7.89
2024-01-24T20:06:26.537Z,7.74
2024-01-24T20:08:54.760Z,7.77
2024-01-24T20:11:22.776Z,7.94
2024-01-24T20:44:35.243Z,7.54
2024-01-24T20:47:03.326Z,7.52
2024-01-24T20:49:33.429Z,7.51
2024-01-24T20:52:06.787Z,7.60
2024-01-24T20:54:37.924Z,7.47
2024-01-24T20:57:06.353Z,7.49
2024-01-24T20:59:39.839Z,7.52
2024-01-24T21:02:08.629Z,7.46
2024-01-24T21:04:37.527Z,7.49
2024-01-24T21:07:07.484Z,7.47
2024-01-24T21:09:35.644Z,7.40
2024-01-24T21:12:03.768Z,7.31
2024-01-24T21:14:31.831Z,7.31
2024-01-24T21:17:01.195Z,7.30
2024-01-24T21:19:29.343Z,7.26
2024-01-24T21:21:57.429Z,7.26
2024-01-24T21:24:25.500Z,7.30
2024-01-24T21:26:53.522Z,7.23
2024-01-24T21:29:21.561Z,7.19
2024-01-24T21:31:49.567Z,7.20
2024-01-24T21:34:19.450Z,7.16
2024-01-24T21:36:48.688Z,7.22
2024-01-24T21:39:18.302Z,7.14
2024-01-24T21:41:46.349Z,7.19
2024-01-24T21:44:14.525Z,7.08
2024-01-24T21:46:42.587Z,7.08
2024-01-24T21:49:10.679Z,7.05
2024-01-24T21:51:40.217Z,7.09
2024-01-24T21:54:10.601Z,7.05
2024-01-24T21:56:38.632Z,7.11
2024-01-24T21:59:06.974Z,7.07
2024-01-24T22:01:35.888Z,7.08
2024-01-24T22:04:04.726Z,7.06
2024-01-24T22:06:33.251Z,7.02
2024-01-24T22:09:04.869Z,7.05
2024-01-24T22:11:33.273Z,6.99
2024-01-24T22:14:02.013Z,7.02
2024-01-24T22:16:30.153Z,6.99
2024-01-24T22:18:58.244Z,7.08
2024-01-24T22:21:26.332Z,6.97
2024-01-24T22:23:54.831Z,6.98
2024-01-24T22:26:24.322Z,6.97
2024-01-24T22:28:52.376Z,6.93
2024-01-24T22:31:20.976Z,7.03
2024-01-24T22:33:49.215Z,7.05
2024-01-24T22:36:18.348Z,7.04
2024-01-24T22:38:49.225Z,7.01
2024-01-24T22:41:17.855Z,6.98
2024-01-24T22:43:47.298Z,6.89
2024-01-24T22:46:15.325Z,6.94
2024-01-24T22:48:43.402Z,6.90
2024-01-24T22:51:13.253Z,6.90
2024-01-24T22:53:41.870Z,6.94
2024-01-24T22:56:10.155Z,6.89
2024-01-24T22:58:38.346Z,6.94
2024-01-24T23:01:07.979Z,6.89
2024-01-24T23:03:36.123Z,6.85
2024-01-24T23:06:04.262Z,6.90
2024-01-24T23:08:32.187Z,6.89
2024-01-24T23:11:00.520Z,6.90
2024-01-24T23:13:28.454Z,6.84
2024-01-24T23:15:56.437Z,6.85
2024-01-24T23:18:25.788Z,6.90
2024-01-24T23:20:55.384Z,6.89
2024-01-24T23:23:23.345Z,6.88
2024-01-24T23:25:51.677Z,6.91
2024-01-24T23:28:20.035Z,6.88
2024-01-24T23:30:48.114Z,6.90
2024-01-24T23:33:16.224Z,6.99
2024-01-24T23:35:45.754Z,6.99
2024-01-24T23:38:13.690Z,6.94
2024-01-24T23:40:41.689Z,7.04
2024-01-24T23:43:12.863Z,6.97
2024-01-24T23:45:40.851Z,6.95
2024-01-24T23:48:09.336Z,6.92
2024-01-24T23:50:37.715Z,6.90
2024-01-24T23:53:08.219Z,6.88
2024-01-24T23:55:36.345Z,6.94
2024-01-24T23:58:04.436Z,6.95
